Kidlington, United Kingdom
Current Conditions -  °F | °C
As of 9:50 PM on Thursday 27 Nov 2014 (Local Time) from EGTK Reporting Station
Clear Clear  
Wind Chill: 42°   Ceiling: Unl
Heat Index: 45°   Visibility: 3mi
Dew Point: 45°   Wind: 5mph
Humidity: 100%   Direction: 70°ENE
Pressure: 29.56"   Gusts: NA
Location:  51.82°N, 1.29°W
Report Text: EGTK 272150Z 07004KT 5000 NSC 07/07 Q1001
Loading
Personal Weather Stations






























Interactive Weather Map New forecast layout! Learn more

10-Day Weather Forecast

Advertisements
Track Severe Weather on mobile